Time;durP1;ratioP1;P1;durP2;ratioP2;P2;SDS_P1;SDS_P2;PMS_P1;PMS_P2;Temp;Humidity;BMP_temperature;BMP_pressure;BME280_temperature;BME280_humidity;BME280_pressure;Samples;Min_cycle;Max_cycle;Signal;HPM_P1;HPM_P2
2021/03/18 00:04:44;;;;;;;5.70;5.27;;;4.30;99.90;;;;;;10532876;28;20200;-78
2021/03/18 00:09:46;;;;;;;5.37;4.97;;;4.20;99.90;;;;;;10531956;28;20236;-78
2021/03/18 00:14:48;;;;;;;6.10;5.40;;;4.20;99.90;;;;;;10513472;28;20206;-78
2021/03/18 00:19:50;;;;;;;5.27;4.80;;;4.20;99.90;;;;;;10529775;28;20308;-78
2021/03/18 00:24:53;;;;;;;5.87;5.37;;;4.20;99.90;;;;;;10531154;28;20196;-77
2021/03/18 00:29:55;;;;;;;5.97;5.30;;;4.20;99.90;;;;;;10529714;28;20220;-78
2021/03/18 00:34:57;;;;;;;6.17;5.67;;;4.20;99.90;;;;;;10531312;28;20712;-78
2021/03/18 00:39:58;;;;;;;6.10;5.50;;;4.30;99.90;;;;;;10530863;28;20222;-78
2021/03/18 00:45:01;;;;;;;6.33;5.60;;;4.30;99.90;;;;;;10531070;28;20269;-78
2021/03/18 00:50:04;;;;;;;6.03;5.40;;;4.30;99.90;;;;;;10512734;28;20314;-78
2021/03/18 00:55:07;;;;;;;6.27;5.70;;;4.40;99.90;;;;;;10511390;28;20196;-78
2021/03/18 01:00:17;;;;;;;5.83;4.63;;;4.40;99.90;;;;;;10525809;28;20212;-76
2021/03/18 01:05:28;;;;;;;6.77;5.70;;;4.60;99.90;;;;;;10531040;28;20203;-76
2021/03/18 01:10:35;;;;;;;6.13;5.57;;;4.70;99.90;;;;;;10532860;28;20268;-75
2021/03/18 01:15:38;;;;;;;6.40;5.80;;;4.70;99.90;;;;;;10525587;28;20235;-76
2021/03/18 01:20:39;;;;;;;7.83;5.07;;;4.70;99.90;;;;;;10517375;28;20723;-75
2021/03/18 01:25:41;;;;;;;6.17;5.57;;;4.60;99.90;;;;;;10521743;28;20286;-75
2021/03/18 01:30:43;;;;;;;6.17;5.60;;;4.60;99.90;;;;;;10512338;28;20699;-76
2021/03/18 01:35:46;;;;;;;7.40;5.97;;;4.60;99.90;;;;;;10524387;28;20208;-76
2021/03/18 01:40:47;;;;;;;8.60;6.33;;;4.60;99.90;;;;;;10526047;28;20264;-76
2021/03/18 01:45:50;;;;;;;6.70;5.60;;;4.60;99.90;;;;;;10533484;28;20298;-76
2021/03/18 01:50:52;;;;;;;6.03;5.53;;;4.60;99.90;;;;;;10532524;28;20224;-76
2021/03/18 01:55:55;;;;;;;6.47;5.20;;;4.50;99.90;;;;;;10533845;28;20476;-76
2021/03/18 02:01:02;;;;;;;5.97;5.00;;;4.50;99.90;;;;;;10527972;28;20210;-76
2021/03/18 02:06:04;;;;;;;6.00;5.40;;;4.50;99.90;;;;;;10530254;28;20728;-76
2021/03/18 02:11:06;;;;;;;4.90;4.50;;;4.50;99.90;;;;;;10532190;28;20306;-75
2021/03/18 02:16:11;;;;;;;5.90;5.40;;;4.50;99.90;;;;;;10515170;28;20207;-75
2021/03/18 02:21:54;;;;;;;6.00;5.50;;;4.40;99.90;;;;;;10558708;22;20224;-77
2021/03/18 02:27:37;;;;;;;5.60;5.20;;;4.40;99.90;;;;;;10524752;28;20219;-78
2021/03/18 02:33:01;;;;;;;4.83;4.40;;;4.40;99.90;;;;;;10537520;28;20219;-78
2021/03/18 02:38:07;;;;;;;5.30;4.90;;;4.40;99.90;;;;;;10534266;28;20257;-79
2021/03/18 02:43:14;;;;;;;5.70;5.10;;;4.40;99.90;;;;;;10530485;28;20265;-80
2021/03/18 02:48:22;;;;;;;5.23;4.70;;;4.40;99.90;;;;;;10544267;28;20199;-79
2021/03/18 02:53:26;;;;;;;4.23;3.83;;;4.40;99.90;;;;;;10540679;28;20693;-79
2021/03/18 02:58:32;;;;;;;6.60;4.90;;;4.50;99.90;;;;;;10544025;28;20207;-79
2021/03/18 03:03:35;;;;;;;5.33;4.43;;;4.60;99.30;;;;;;10547141;28;20211;-78
2021/03/18 03:08:39;;;;;;;4.33;4.03;;;4.70;99.70;;;;;;10539756;28;20196;-76
2021/03/18 03:13:43;;;;;;;4.67;4.27;;;4.80;99.90;;;;;;10540938;28;20559;-76
2021/03/18 03:18:46;;;;;;;5.33;4.83;;;4.80;99.70;;;;;;10553273;28;20196;-77
2021/03/18 03:23:49;;;;;;;5.50;5.00;;;4.80;99.90;;;;;;10521904;28;20228;-76
2021/03/18 03:28:51;;;;;;;4.10;3.80;;;4.80;99.50;;;;;;10539836;28;20570;-78
2021/03/18 03:33:53;;;;;;;4.40;4.10;;;4.80;99.70;;;;;;10538826;28;20220;-78
2021/03/18 03:38:55;;;;;;;5.80;4.60;;;4.80;99.30;;;;;;10535342;28;20250;-78
2021/03/18 03:43:57;;;;;;;4.73;4.10;;;4.70;99.50;;;;;;10553833;28;20234;-76
2021/03/18 03:48:59;;;;;;;5.53;3.93;;;4.80;99.00;;;;;;10542282;28;20230;-78
2021/03/18 03:54:03;;;;;;;5.53;5.03;;;4.80;99.30;;;;;;10537768;28;20255;-76
2021/03/18 03:59:07;;;;;;;3.97;3.67;;;4.90;98.80;;;;;;10537831;28;20220;-76
2021/03/18 04:04:13;;;;;;;7.63;4.23;;;5.00;98.40;;;;;;10538331;28;20199;-76
2021/03/18 04:09:18;;;;;;;5.70;4.27;;;5.00;98.20;;;;;;10533726;28;20211;-76
2021/03/18 04:14:23;;;;;;;4.37;4.07;;;5.00;98.10;;;;;;10538010;28;20199;-76
2021/03/18 04:19:26;;;;;;;4.73;4.33;;;5.10;98.00;;;;;;10520255;28;20216;-77
2021/03/18 04:24:31;;;;;;;4.07;3.67;;;5.10;97.70;;;;;;10536449;28;20210;-77
2021/03/18 04:29:33;;;;;;;5.10;4.70;;;5.10;97.00;;;;;;10519594;28;20231;-76
2021/03/18 04:34:36;;;;;;;5.73;4.70;;;5.10;96.80;;;;;;10536313;28;20249;-76
2021/03/18 04:39:39;;;;;;;6.43;5.50;;;5.10;97.00;;;;;;10518642;28;20591;-78
2021/03/18 04:44:44;;;;;;;6.33;5.47;;;5.10;97.10;;;;;;10504444;28;20196;-77
2021/03/18 04:49:47;;;;;;;6.70;4.43;;;5.10;97.10;;;;;;10522642;28;20676;-76
2021/03/18 04:54:50;;;;;;;4.20;3.90;;;5.10;96.50;;;;;;10522335;28;20191;-78
2021/03/18 04:59:52;;;;;;;4.33;3.93;;;5.10;97.10;;;;;;10517328;28;20222;-77
2021/03/18 05:04:55;;;;;;;8.00;4.50;;;5.10;97.10;;;;;;10519707;28;20200;-79
2021/03/18 05:09:57;;;;;;;5.67;4.23;;;5.10;97.10;;;;;;10521546;28;20221;-78
2021/03/18 05:15:00;;;;;;;4.63;4.23;;;5.10;97.20;;;;;;10530217;28;20215;-78
2021/03/18 05:20:02;;;;;;;3.90;3.60;;;5.10;96.60;;;;;;10498586;28;20311;-78
2021/03/18 05:25:09;;;;;;;4.90;4.13;;;5.10;96.90;;;;;;10523735;28;20659;-78
2021/03/18 05:30:14;;;;;;;6.40;4.50;;;5.10;97.00;;;;;;10524143;28;20208;-78
2021/03/18 05:35:16;;;;;;;4.40;4.00;;;5.10;96.20;;;;;;10523449;28;20667;-78
2021/03/18 05:40:20;;;;;;;4.70;4.27;;;5.10;96.70;;;;;;10495023;28;20298;-77
2021/03/18 05:45:21;;;;;;;5.33;4.57;;;5.10;97.40;;;;;;10521419;28;20234;-77
2021/03/18 05:50:24;;;;;;;5.17;4.70;;;5.00;96.50;;;;;;10514971;28;20295;-77
2021/03/18 05:55:27;;;;;;;5.43;4.67;;;5.00;97.50;;;;;;10519153;28;20257;-77
2021/03/18 06:00:32;;;;;;;5.00;4.50;;;4.90;96.80;;;;;;10526753;28;20212;-77
2021/03/18 06:05:35;;;;;;;7.30;4.60;;;4.90;97.70;;;;;;10512668;28;20304;-77
2021/03/18 06:10:38;;;;;;;5.00;4.53;;;4.90;97.90;;;;;;10526938;28;20219;-78
2021/03/18 06:15:40;;;;;;;5.07;4.67;;;4.90;98.40;;;;;;10533174;28;20207;-79
2021/03/18 06:20:49;;;;;;;7.30;5.33;;;5.00;97.80;;;;;;10531996;28;20228;-79
2021/03/18 06:25:51;;;;;;;6.50;4.90;;;5.10;97.30;;;;;;10537372;28;20203;-79
2021/03/18 06:31:02;;;;;;;5.43;4.93;;;5.20;96.60;;;;;;10543452;28;20254;-79
2021/03/18 06:36:19;;;;;;;6.27;4.97;;;5.30;96.70;;;;;;10546702;28;20203;-79
2021/03/18 06:41:31;;;;;;;5.57;4.90;;;5.40;96.60;;;;;;10546909;28;20207;-78
2021/03/18 06:46:32;;;;;;;6.07;5.47;;;5.40;96.20;;;;;;10542361;28;20290;-79
2021/03/18 06:51:34;;;;;;;7.40;5.00;;;5.50;96.80;;;;;;10526927;28;20219;-79
2021/03/18 06:56:36;;;;;;;6.10;5.53;;;5.50;96.80;;;;;;10529075;28;20291;-76
2021/03/18 07:01:38;;;;;;;5.73;5.20;;;5.60;96.40;;;;;;10531144;28;20591;-78
2021/03/18 07:06:40;;;;;;;6.30;5.33;;;5.60;96.40;;;;;;10528981;28;20717;-80
2021/03/18 07:11:44;;;;;;;6.20;5.60;;;5.60;96.90;;;;;;10508607;28;20318;-80
2021/03/18 07:16:47;;;;;;;5.80;5.30;;;5.60;96.10;;;;;;10533512;28;20282;-78
2021/03/18 07:21:49;;;;;;;5.80;4.60;;;5.70;96.50;;;;;;10543906;28;20239;-77
2021/03/18 07:26:52;;;;;;;5.57;5.07;;;5.80;96.30;;;;;;10539052;28;20195;-78
2021/03/18 07:31:54;;;;;;;6.33;5.13;;;5.80;95.80;;;;;;10523437;28;20227;-80
2021/03/18 07:36:57;;;;;;;6.17;5.57;;;5.90;96.00;;;;;;10545062;28;20222;-79
2021/03/18 07:42:02;;;;;;;6.73;5.40;;;6.00;96.20;;;;;;10544022;28;20208;-80
2021/03/18 07:47:04;;;;;;;8.20;6.00;;;6.10;94.60;;;;;;10534289;28;20671;-79
2021/03/18 07:52:07;;;;;;;8.73;5.97;;;6.20;94.40;;;;;;10542220;28;20305;-78
2021/03/18 07:57:15;;;;;;;6.87;6.17;;;6.30;94.60;;;;;;10549656;28;20282;-80
2021/03/18 08:02:18;;;;;;;6.63;5.80;;;6.20;94.70;;;;;;10549363;28;20216;-79
2021/03/18 08:07:39;;;;;;;7.33;6.60;;;6.30;95.00;;;;;;10541176;28;20285;-78
2021/03/18 08:12:49;;;;;;;6.90;6.27;;;6.40;94.60;;;;;;10543881;28;20223;-78
2021/03/18 08:17:52;;;;;;;7.07;6.37;;;6.50;94.60;;;;;;10542487;28;20282;-79
2021/03/18 08:22:53;;;;;;;5.77;5.27;;;6.50;94.50;;;;;;10549112;28;20234;-78
2021/03/18 08:27:56;;;;;;;6.67;5.93;;;6.60;94.30;;;;;;10565867;28;20233;-78
2021/03/18 08:32:58;;;;;;;7.17;6.40;;;6.70;93.60;;;;;;10544408;28;20712;-78
2021/03/18 08:38:15;;;;;;;7.17;6.47;;;6.80;94.00;;;;;;10541127;28;20341;-79
2021/03/18 08:43:18;;;;;;;7.70;6.80;;;7.10;92.80;;;;;;10536724;28;20215;-77
2021/03/18 08:48:21;;;;;;;9.77;6.90;;;7.20;93.60;;;;;;10536912;28;20683;-79
2021/03/18 08:53:28;;;;;;;7.80;7.10;;;7.20;92.30;;;;;;10504508;28;20223;-79
2021/03/18 08:58:47;;;;;;;7.90;7.10;;;7.10;91.60;;;;;;10519416;28;20199;-77
2021/03/18 09:03:57;;;;;;;8.13;7.33;;;7.20;91.10;;;;;;10538057;28;20597;-77
2021/03/18 09:09:00;;;;;;;7.60;6.90;;;7.30;90.90;;;;;;10559921;28;20199;-77
2021/03/18 09:14:03;;;;;;;7.50;6.80;;;7.20;89.10;;;;;;10552122;28;20235;-78
2021/03/18 09:19:05;;;;;;;7.53;6.83;;;7.00;89.50;;;;;;10540120;28;20756;-77
2021/03/18 09:24:09;;;;;;;8.03;7.20;;;6.70;90.30;;;;;;10540522;28;20298;-77
2021/03/18 09:29:11;;;;;;;8.13;7.43;;;6.50;91.40;;;;;;10552272;28;20212;-77
2021/03/18 09:34:13;;;;;;;7.40;6.70;;;6.50;92.10;;;;;;10541747;28;20295;-78
2021/03/18 09:39:15;;;;;;;10.17;7.90;;;6.50;91.20;;;;;;10542556;28;20212;-78
2021/03/18 09:44:20;;;;;;;8.20;7.50;;;6.60;91.00;;;;;;10539773;28;20193;-78
2021/03/18 09:49:30;;;;;;;9.23;6.70;;;6.60;90.60;;;;;;10533376;28;20216;-78
2021/03/18 09:54:32;;;;;;;7.07;6.47;;;6.60;91.40;;;;;;10534205;28;20626;-78
2021/03/18 09:59:35;;;;;;;9.40;6.90;;;6.60;90.90;;;;;;10533043;28;20213;-78
2021/03/18 10:04:38;;;;;;;6.73;6.13;;;6.80;91.40;;;;;;10533017;28;20192;-78
2021/03/18 10:09:42;;;;;;;6.30;5.70;;;7.50;91.30;;;;;;10534672;28;20227;-78
2021/03/18 10:14:51;;;;;;;5.27;4.87;;;8.30;88.80;;;;;;10548564;28;20667;-78
2021/03/18 10:19:59;;;;;;;6.43;5.70;;;8.90;87.90;;;;;;10542326;28;20715;-78
2021/03/18 10:25:11;;;;;;;6.90;5.90;;;9.10;85.60;;;;;;10565707;28;20200;-79
2021/03/18 10:30:16;;;;;;;7.27;5.83;;;8.90;85.50;;;;;;10534645;28;20220;-79
2021/03/18 10:35:18;;;;;;;7.03;5.53;;;8.60;85.30;;;;;;10558291;28;20192;-77
2021/03/18 10:40:23;;;;;;;5.87;5.20;;;8.40;86.20;;;;;;10541399;28;20714;-77
2021/03/18 10:45:29;;;;;;;6.50;5.90;;;8.10;87.30;;;;;;10543808;28;20203;-77
2021/03/18 10:50:32;;;;;;;6.43;5.40;;;7.90;88.40;;;;;;10545131;28;20211;-76
2021/03/18 10:55:39;;;;;;;5.30;4.80;;;7.80;90.20;;;;;;10541570;28;20195;-78
2021/03/18 11:00:42;;;;;;;5.20;4.70;;;7.80;83.90;;;;;;10522326;28;20356;-78
2021/03/18 11:05:48;;;;;;;7.87;5.60;;;7.90;83.50;;;;;;10537655;28;20282;-77
2021/03/18 11:10:54;;;;;;;8.33;5.20;;;8.00;87.60;;;;;;10518177;28;20298;-77
2021/03/18 11:15:59;;;;;;;5.90;4.63;;;8.20;87.00;;;;;;10534117;28;20196;-77
2021/03/18 11:21:02;;;;;;;7.23;5.30;;;8.40;85.90;;;;;;10510961;28;20232;-78
2021/03/18 11:26:05;;;;;;;5.57;5.07;;;8.60;85.70;;;;;;10531686;28;20199;-78
2021/03/18 11:31:14;;;;;;;5.10;4.60;;;8.80;85.80;;;;;;10526193;28;20585;-78
2021/03/18 11:36:17;;;;;;;6.43;4.90;;;8.90;81.30;;;;;;10531913;28;20606;-78
2021/03/18 11:41:19;;;;;;;5.40;4.90;;;8.90;77.70;;;;;;10530342;28;20220;-77
2021/03/18 11:46:22;;;;;;;5.63;4.50;;;8.90;77.50;;;;;;10523082;28;20192;-78
2021/03/18 11:51:24;;;;;;;5.53;4.70;;;8.80;72.50;;;;;;10520957;28;20208;-77
2021/03/18 11:56:26;;;;;;;5.13;4.43;;;8.70;72.60;;;;;;10517271;28;20245;-78
2021/03/18 12:01:28;;;;;;;6.93;6.23;;;8.80;72.50;;;;;;10518440;28;20208;-77
2021/03/18 12:06:30;;;;;;;5.30;4.80;;;8.70;74.50;;;;;;10520488;28;20658;-78
2021/03/18 12:11:32;;;;;;;5.10;4.70;;;8.80;76.80;;;;;;10533987;28;20224;-78
2021/03/18 12:16:36;;;;;;;5.63;5.10;;;8.80;79.20;;;;;;10535353;28;20219;-78
2021/03/18 12:21:37;;;;;;;4.97;4.47;;;8.80;78.20;;;;;;10511725;28;20317;-78
2021/03/18 12:26:40;;;;;;;6.90;5.00;;;8.80;77.70;;;;;;10519033;28;20207;-78
2021/03/18 12:31:42;;;;;;;6.00;5.20;;;8.90;81.40;;;;;;10497423;28;20256;-78
2021/03/18 12:36:44;;;;;;;6.43;4.40;;;8.90;81.40;;;;;;10467974;28;20201;-77
2021/03/18 12:41:46;;;;;;;6.07;5.47;;;8.90;77.20;;;;;;10516157;28;20219;-77
2021/03/18 12:46:48;;;;;;;6.10;5.47;;;8.90;79.70;;;;;;10529206;28;20227;-79
2021/03/18 12:51:50;;;;;;;6.27;5.63;;;8.70;81.70;;;;;;10525434;28;20208;-78
2021/03/18 12:56:52;;;;;;;5.30;4.80;;;8.60;83.20;;;;;;10525736;28;20200;-79
2021/03/18 13:01:54;;;;;;;6.10;4.97;;;8.50;83.40;;;;;;10524134;28;20247;-80
2021/03/18 13:06:58;;;;;;;6.30;5.13;;;8.50;82.80;;;;;;10523674;28;20665;-77
2021/03/18 13:12:00;;;;;;;5.27;4.77;;;8.50;83.60;;;;;;10534653;28;20280;-77
2021/03/18 13:17:03;;;;;;;5.90;5.40;;;8.50;84.00;;;;;;10536051;28;20207;-77
2021/03/18 13:22:06;;;;;;;5.23;4.83;;;8.60;83.20;;;;;;10524402;28;20227;-77
2021/03/18 13:27:08;;;;;;;4.60;4.20;;;8.60;83.80;;;;;;10506715;28;20644;-77
2021/03/18 13:32:10;;;;;;;5.73;5.27;;;8.70;82.80;;;;;;10504814;28;20267;-77
2021/03/18 13:37:12;;;;;;;5.80;5.20;;;8.80;82.40;;;;;;10517408;28;20224;-78
2021/03/18 13:42:14;;;;;;;5.80;5.20;;;8.80;81.40;;;;;;10507315;28;20582;-79
2021/03/18 13:47:16;;;;;;;6.07;4.53;;;8.70;80.70;;;;;;10508587;28;20204;-78
2021/03/18 13:52:18;;;;;;;5.23;4.73;;;8.70;80.50;;;;;;10485020;28;20223;-78
2021/03/18 13:57:20;;;;;;;5.40;4.90;;;8.70;80.20;;;;;;10504010;28;20238;-78
2021/03/18 14:02:23;;;;;;;8.80;4.53;;;8.50;81.10;;;;;;10486413;28;20222;-78
2021/03/18 14:07:24;;;;;;;4.97;4.57;;;8.30;78.20;;;;;;10496079;28;20551;-77
2021/03/18 14:12:26;;;;;;;4.77;4.33;;;8.20;80.50;;;;;;10501241;28;20230;-78
2021/03/18 14:17:29;;;;;;;5.87;5.20;;;8.10;78.80;;;;;;10512113;28;20192;-77
2021/03/18 14:22:31;;;;;;;4.83;4.50;;;8.00;78.70;;;;;;10532428;28;20583;-78
2021/03/18 14:27:32;;;;;;;5.23;4.73;;;7.90;78.60;;;;;;10518866;28;20236;-78
2021/03/18 14:32:35;;;;;;;4.50;4.10;;;7.90;78.20;;;;;;10497827;28;20282;-80
2021/03/18 14:37:38;;;;;;;4.37;4.07;;;7.80;77.50;;;;;;10521902;28;20192;-76
2021/03/18 14:42:40;;;;;;;4.40;4.00;;;7.70;78.10;;;;;;10509006;28;20260;-78
2021/03/18 14:47:42;;;;;;;4.57;4.17;;;7.70;77.60;;;;;;10525381;28;20253;-78
2021/03/18 14:52:46;;;;;;;4.97;4.57;;;7.80;76.60;;;;;;10532354;28;20227;-78
2021/03/18 14:57:48;;;;;;;4.93;4.53;;;7.80;74.80;;;;;;10513402;28;20192;-77
2021/03/18 15:02:50;;;;;;;4.60;4.10;;;7.80;76.40;;;;;;10530740;28;20240;-77
2021/03/18 15:07:52;;;;;;;5.30;3.90;;;7.80;75.20;;;;;;10528969;28;20200;-77
2021/03/18 15:12:54;;;;;;;3.83;3.60;;;7.80;74.50;;;;;;10532626;28;20223;-80
2021/03/18 15:17:56;;;;;;;4.00;3.70;;;7.90;73.20;;;;;;10543365;28;20613;-79
2021/03/18 15:22:58;;;;;;;4.00;3.70;;;7.90;76.70;;;;;;10549268;28;20228;-77
2021/03/18 15:28:00;;;;;;;4.97;4.47;;;8.00;75.80;;;;;;10537592;28;20254;-78
2021/03/18 15:33:03;;;;;;;3.90;3.60;;;8.20;76.10;;;;;;10539410;28;20675;-77
2021/03/18 15:38:05;;;;;;;4.37;4.00;;;8.30;69.80;;;;;;10552357;27;20282;-77
2021/03/18 15:43:08;;;;;;;4.40;4.00;;;8.40;72.10;;;;;;10552840;27;20306;-77
2021/03/18 15:48:12;;;;;;;4.30;3.90;;;8.50;74.40;;;;;;10546267;28;20196;-76
2021/03/18 15:53:15;;;;;;;4.90;4.43;;;8.40;74.40;;;;;;10516608;28;20321;-78
2021/03/18 15:58:17;;;;;;;5.60;4.80;;;8.30;76.50;;;;;;10523582;28;20663;-77
2021/03/18 16:03:20;;;;;;;4.67;4.20;;;8.30;78.20;;;;;;10530683;28;20243;-76
2021/03/18 16:08:22;;;;;;;4.57;4.20;;;8.20;80.00;;;;;;10536650;28;20660;-77
2021/03/18 16:13:23;;;;;;;4.30;3.83;;;8.10;79.40;;;;;;10536444;28;20346;-77
2021/03/18 16:18:29;;;;;;;4.40;4.00;;;8.00;79.80;;;;;;10544482;28;20252;-77
2021/03/18 16:23:31;;;;;;;6.23;4.10;;;8.00;80.20;;;;;;10554728;28;20245;-77
2021/03/18 16:28:33;;;;;;;4.13;3.60;;;8.00;78.90;;;;;;10526057;28;20294;-78
2021/03/18 16:33:35;;;;;;;4.67;3.60;;;7.80;78.60;;;;;;10526242;28;20254;-79
2021/03/18 16:38:37;;;;;;;3.10;2.80;;;7.80;75.70;;;;;;10524779;28;20204;-78
2021/03/18 16:43:39;;;;;;;3.23;2.93;;;7.70;73.60;;;;;;10508816;28;20265;-80
2021/03/18 16:48:42;;;;;;;3.57;3.20;;;7.60;73.30;;;;;;10511080;28;20210;-78
2021/03/18 16:53:44;;;;;;;3.73;3.43;;;7.50;76.00;;;;;;10511873;28;20487;-80
2021/03/18 16:58:46;;;;;;;4.40;4.00;;;7.50;76.50;;;;;;10529221;28;20257;-78
2021/03/18 17:03:50;;;;;;;7.83;3.90;;;7.40;77.10;;;;;;10529673;28;20209;-81
2021/03/18 17:08:52;;;;;;;4.30;3.90;;;7.40;78.20;;;;;;10533473;28;20199;-81
2021/03/18 17:13:54;;;;;;;4.73;4.40;;;7.40;76.20;;;;;;10535137;28;20218;-78
2021/03/18 17:18:56;;;;;;;5.93;4.17;;;7.40;78.10;;;;;;10536208;28;20216;-77
2021/03/18 17:23:58;;;;;;;5.20;4.30;;;7.30;77.80;;;;;;10534549;28;20230;-79
2021/03/18 17:29:00;;;;;;;4.20;3.80;;;7.30;79.50;;;;;;10536602;28;20597;-78
2021/03/18 17:34:03;;;;;;;4.33;3.93;;;7.20;79.20;;;;;;10534979;28;20214;-77
2021/03/18 17:39:06;;;;;;;2.87;2.67;;;7.10;79.60;;;;;;10553016;28;20223;-80
2021/03/18 17:44:07;;;;;;;4.10;3.70;;;7.10;79.40;;;;;;10537131;28;20192;-79
2021/03/18 17:49:10;;;;;;;4.13;3.73;;;6.90;80.70;;;;;;10537005;28;20528;-81
2021/03/18 17:54:12;;;;;;;5.00;4.47;;;6.70;81.30;;;;;;10542899;28;20214;-80
2021/03/18 17:59:13;;;;;;;4.73;4.30;;;6.40;81.80;;;;;;10546420;28;20276;-83
2021/03/18 18:04:16;;;;;;;5.03;4.53;;;6.10;82.00;;;;;;10529816;28;20221;-76
2021/03/18 18:09:18;;;;;;;5.80;3.90;;;5.90;82.90;;;;;;10542957;28;20211;-81
2021/03/18 18:14:19;;;;;;;5.23;4.23;;;5.70;83.70;;;;;;10542149;28;20235;-77
2021/03/18 18:19:22;;;;;;;4.80;4.40;;;5.50;84.00;;;;;;10546041;28;20234;-76
2021/03/18 18:24:23;;;;;;;18.90;13.13;;;5.30;85.00;;;;;;10536520;28;20203;-79
2021/03/18 18:29:25;;;;;;;50.03;27.60;;;5.20;85.20;;;;;;10520402;28;20472;-80
2021/03/18 18:34:28;;;;;;;16.70;11.67;;;5.10;85.70;;;;;;10520212;28;20219;-83
2021/03/18 18:39:30;;;;;;;13.03;9.10;;;5.00;85.50;;;;;;10536984;28;20795;-81
2021/03/18 18:44:34;;;;;;;21.53;16.60;;;5.00;85.70;;;;;;10539124;28;20200;-80
2021/03/18 18:49:37;;;;;;;14.80;12.40;;;4.90;86.40;;;;;;10529287;28;20223;-79
2021/03/18 18:54:38;;;;;;;7.90;7.20;;;4.90;86.80;;;;;;10533589;28;20249;-80
2021/03/18 18:59:40;;;;;;;6.13;5.67;;;4.90;87.20;;;;;;10531166;28;20227;-80
2021/03/18 19:04:43;;;;;;;8.87;7.40;;;4.90;87.30;;;;;;10534058;28;20200;-79
2021/03/18 19:09:45;;;;;;;6.30;5.70;;;5.00;87.50;;;;;;10536313;28;20235;-80
2021/03/18 19:14:47;;;;;;;7.90;6.27;;;5.00;87.40;;;;;;10530038;28;20269;-80
2021/03/18 19:19:50;;;;;;;6.10;5.70;;;5.10;87.70;;;;;;10536649;28;20232;-81
2021/03/18 19:24:51;;;;;;;6.43;5.93;;;5.20;87.60;;;;;;10540058;28;20283;-80
2021/03/18 19:29:53;;;;;;;6.07;5.60;;;5.20;88.30;;;;;;10498582;28;20236;-80
2021/03/18 19:34:55;;;;;;;12.20;5.73;;;5.30;89.10;;;;;;10531896;28;20658;-81
2021/03/18 19:39:57;;;;;;;7.90;5.93;;;5.40;89.10;;;;;;10532604;28;20786;-78
2021/03/18 19:44:59;;;;;;;6.10;5.57;;;5.50;88.80;;;;;;10531517;28;20208;-80
2021/03/18 19:50:02;;;;;;;6.47;5.60;;;5.60;89.20;;;;;;10527630;28;20226;-77
2021/03/18 19:55:06;;;;;;;6.93;6.23;;;5.70;89.00;;;;;;10531334;28;20216;-79
2021/03/18 20:00:12;;;;;;;7.30;6.60;;;5.70;89.00;;;;;;10538490;28;20223;-79
2021/03/18 20:05:16;;;;;;;6.40;5.80;;;5.80;88.90;;;;;;10548207;28;20573;-79
2021/03/18 20:10:19;;;;;;;8.13;7.30;;;5.90;87.70;;;;;;10551026;28;20215;-77
2021/03/18 20:15:21;;;;;;;7.30;5.10;;;5.90;87.60;;;;;;10525484;28;20220;-78
2021/03/18 20:20:26;;;;;;;8.27;6.30;;;6.00;86.50;;;;;;10516393;22;20255;-79
2021/03/18 20:25:28;;;;;;;6.63;6.03;;;6.00;85.90;;;;;;10457782;28;20648;-76
2021/03/18 20:30:35;;;;;;;13.07;9.07;;;6.00;87.10;;;;;;10449961;28;20255;-76
2021/03/18 20:35:40;;;;;;;7.60;7.00;;;6.00;86.60;;;;;;10441973;28;20217;-76
2021/03/18 20:40:43;;;;;;;5.63;5.20;;;6.00;87.20;;;;;;10442994;28;20275;-76
2021/03/18 20:45:45;;;;;;;6.90;6.20;;;5.90;87.10;;;;;;10443034;28;20189;-78
2021/03/18 20:50:48;;;;;;;6.50;5.90;;;5.80;87.30;;;;;;10442411;28;20301;-78
2021/03/18 20:55:50;;;;;;;6.83;6.23;;;5.70;87.90;;;;;;10447580;28;20234;-78
2021/03/18 21:00:52;;;;;;;7.00;6.40;;;5.60;87.80;;;;;;10454015;28;20260;-78
2021/03/18 21:05:54;;;;;;;6.97;6.33;;;5.50;88.50;;;;;;10453051;28;20240;-78
2021/03/18 21:10:56;;;;;;;8.33;7.50;;;5.50;89.00;;;;;;10462158;28;20703;-78
2021/03/18 21:15:58;;;;;;;7.33;6.67;;;5.50;89.30;;;;;;10468828;28;20235;-78
2021/03/18 21:21:00;;;;;;;7.50;6.43;;;5.50;89.60;;;;;;10466599;28;20220;-78
2021/03/18 21:26:02;;;;;;;6.97;6.40;;;5.50;90.00;;;;;;10449953;28;20207;-79
2021/03/18 21:31:04;;;;;;;7.73;6.70;;;5.50;90.30;;;;;;10467559;28;20592;-79
2021/03/18 21:36:08;;;;;;;7.00;6.40;;;5.50;90.30;;;;;;10461213;28;20201;-78
2021/03/18 21:41:10;;;;;;;7.97;7.33;;;5.40;90.20;;;;;;10460146;28;20221;-75
2021/03/18 21:46:11;;;;;;;6.73;6.13;;;5.40;90.60;;;;;;10461063;28;20442;-75
2021/03/18 21:51:14;;;;;;;6.10;5.60;;;5.40;90.60;;;;;;10458579;28;20719;-76
2021/03/18 21:56:16;;;;;;;5.57;5.10;;;5.50;90.40;;;;;;10447374;28;20201;-76
2021/03/18 22:01:18;;;;;;;5.90;5.30;;;5.50;90.20;;;;;;10462119;28;20593;-76
2021/03/18 22:06:20;;;;;;;5.40;5.00;;;5.50;90.30;;;;;;10458713;28;20197;-76
2021/03/18 22:11:22;;;;;;;5.37;4.87;;;5.50;90.20;;;;;;10459747;28;20597;-76
2021/03/18 22:16:24;;;;;;;5.93;5.27;;;5.60;90.20;;;;;;10469989;28;20247;-76
2021/03/18 22:21:27;;;;;;;5.33;4.93;;;5.60;90.30;;;;;;10465718;28;20757;-75
2021/03/18 22:26:29;;;;;;;5.83;5.10;;;5.60;90.00;;;;;;10466812;28;20250;-76
2021/03/18 22:31:31;;;;;;;4.50;4.20;;;5.60;90.30;;;;;;10467026;28;20216;-75
2021/03/18 22:36:34;;;;;;;5.60;5.10;;;5.70;90.10;;;;;;10467541;28;20196;-76
2021/03/18 22:41:37;;;;;;;5.13;4.70;;;5.70;90.30;;;;;;10466354;28;20248;-76
2021/03/18 22:46:39;;;;;;;6.07;4.47;;;5.80;89.50;;;;;;10460164;28;20201;-76
2021/03/18 22:51:42;;;;;;;5.37;4.87;;;5.80;89.30;;;;;;10449525;28;20222;-75
2021/03/18 22:56:43;;;;;;;6.30;5.70;;;5.80;89.50;;;;;;10467079;28;20280;-76
2021/03/18 23:01:45;;;;;;;7.93;5.27;;;5.80;89.30;;;;;;10464290;28;20217;-76
2021/03/18 23:06:48;;;;;;;7.70;7.00;;;5.90;88.40;;;;;;10445125;28;20664;-76
2021/03/18 23:11:50;;;;;;;6.67;5.60;;;5.90;88.60;;;;;;10441682;28;20614;-76
2021/03/18 23:17:04;;;;;;;6.73;6.07;;;6.00;88.60;;;;;;10443217;28;20609;-76
2021/03/18 23:22:09;;;;;;;6.80;6.03;;;6.00;89.80;;;;;;10446776;28;20255;-75
2021/03/18 23:27:10;;;;;;;5.83;5.33;;;6.00;89.70;;;;;;10437254;28;20280;-76
2021/03/18 23:32:13;;;;;;;6.20;4.73;;;6.10;88.90;;;;;;10443875;28;20300;-76
2021/03/18 23:37:16;;;;;;;5.67;5.23;;;6.10;89.10;;;;;;10448891;28;20204;-76
2021/03/18 23:42:18;;;;;;;5.17;4.77;;;6.10;88.60;;;;;;10450159;28;20225;-76
2021/03/18 23:52:50;;;;;;;6.00;5.50;;;6.10;90.40;;;;;;10450871;28;20580;-76
2021/03/18 23:57:55;;;;;;;6.23;5.73;;;6.10;91.70;;;;;;10450805;28;20201;-75
